XYMY weather

CLOSED Victoria STOLport
Montreal, Quebec, Canada

Public forecast

Using degrees Celsius for public forecast. Weather courtesy of forecast.io.

Closest aviation weather report (METAR) to Victoria STOLport

Closest report is MontrĂ©al / Saint-Hubert Airport, 5.9 nm (11.0 km) ENE. Retrieved 2019/11/12 02:00 UTC (31 minutes ago):

CYHU 120200Z AUTO 04012KT 3/4SM R24R/P6000FT/U -SN VV011 M07/M08 A3017 RMK SLP221

Closest aviation forecast (TAF) to Victoria STOLport

Closest forecast is MontrĂ©al / Saint-Hubert Airport, 5.9 nm (11.0 km) ENE. Retrieved 2019-11-12 00:42 UTC (2 hours ago):

TAF CYHU 112338Z 1200/1224 05008KT 1SM -SN BKN008 OVC020 TEMPO 1200/1201 3SM -SN OVC025 FM120100 04012G22KT 3/4SM -SN VV007 TEMPO 1201/1210 2SM -SN OVC012 FM121000 01010G20KT 1SM -SN VV010 FM121500 32015KT P6SM -SN BKN030 BECMG 1216/1218 30015KT FM122000 27015G25KT P6SM BKN030 RMK FCST BASED ON AUTO OBS NXT FCST BY 120600Z